createdAt,value
2022-10-31T00:01:40.257Z,100214.34
2022-10-31T00:04:07.415Z,100207.53
2022-10-31T00:06:34.398Z,100201.63
2022-10-31T00:09:04.536Z,100205.84
2022-10-31T00:11:31.984Z,100210.25
2022-10-31T00:13:59.935Z,100204.19
2022-10-31T00:16:28.303Z,100212.81
2022-10-31T00:18:59.836Z,100221.38
2022-10-31T00:21:27.211Z,100238.50
2022-10-31T00:23:54.211Z,100224.91
2022-10-31T00:26:21.019Z,100215.47
2022-10-31T00:28:47.994Z,100216.31
2022-10-31T00:31:22.818Z,100216.31
2022-10-31T00:33:49.512Z,100218.91
2022-10-31T00:36:19.555Z,100218.94
2022-10-31T00:38:47.988Z,100217.25
2022-10-31T00:41:17.720Z,100224.94
2022-10-31T00:43:44.925Z,100218.94
2022-10-31T00:46:13.267Z,100222.38
2022-10-31T00:48:40.496Z,100213.00
2022-10-31T00:51:07.730Z,100211.25
2022-10-31T00:53:34.592Z,100205.25
2022-10-31T00:56:01.673Z,100204.41
2022-10-31T00:58:28.378Z,100194.16
2022-10-31T01:00:57.918Z,100189.91
2022-10-31T01:03:31.333Z,100189.13
2022-10-31T01:06:13.413Z,100202.09
2022-10-31T01:08:40.295Z,100197.91
2022-10-31T01:11:17.532Z,100196.31
2022-10-31T01:13:45.236Z,100191.28
2022-10-31T01:16:15.741Z,100189.59
2022-10-31T01:18:42.797Z,100187.94
2022-10-31T01:21:20.264Z,100178.56
2022-10-31T01:23:47.380Z,100172.66
2022-10-31T01:26:20.685Z,100192.31
2022-10-31T01:29:08.556Z,100188.16
2022-10-31T01:31:39.116Z,100190.72
2022-10-31T01:34:07.476Z,100193.28
2022-10-31T01:36:38.379Z,100193.28
2022-10-31T01:39:11.827Z,100195.03
2022-10-31T01:41:45.286Z,100189.16
2022-10-31T01:44:14.912Z,100191.75
2022-10-31T01:46:59.140Z,100189.25
2022-10-31T01:49:43.161Z,100196.94
2022-10-31T01:52:17.755Z,100190.97
2022-10-31T01:55:16.623Z,100190.94
2022-10-31T01:57:51.095Z,100183.25
2022-10-31T02:00:21.063Z,100183.19
2022-10-31T02:02:50.976Z,100183.25
2022-10-31T02:05:25.517Z,100194.28
2022-10-31T02:07:58.059Z,100188.25
2022-10-31T02:10:26.176Z,100192.53
2022-10-31T02:12:57.933Z,100181.41
2022-10-31T02:15:25.040Z,100185.72
2022-10-31T02:17:52.841Z,100182.38
2022-10-31T02:20:24.694Z,100177.28
2022-10-31T02:23:34.217Z,100174.00
2022-10-31T02:26:53.015Z,100181.91
2022-10-31T02:30:00.082Z,100182.94
2022-10-31T02:32:50.831Z,100183.94
2022-10-31T02:36:05.105Z,100182.41
2022-10-31T02:39:12.539Z,100181.69
2022-10-31T02:41:51.260Z,100175.81
2022-10-31T02:44:50.140Z,100180.06
2022-10-31T02:47:37.754Z,100176.72
2022-10-31T02:50:23.270Z,100175.00
2022-10-31T02:52:53.956Z,100180.19
2022-10-31T02:55:26.406Z,100173.31
2022-10-31T02:58:05.854Z,100169.84
2022-10-31T03:00:55.196Z,100174.03
2022-10-31T03:04:02.072Z,100167.22
2022-10-31T03:06:42.087Z,100161.28
2022-10-31T03:09:39.246Z,100160.44
2022-10-31T03:12:20.236Z,100150.25
2022-10-31T03:15:07.845Z,100150.28
2022-10-31T03:18:00.651Z,100164.84
2022-10-31T03:20:40.089Z,100158.09
2022-10-31T03:23:15.912Z,100156.44
2022-10-31T03:25:44.580Z,100159.91
2022-10-31T03:28:16.451Z,100147.09
2022-10-31T03:30:46.363Z,100151.47
2022-10-31T03:33:22.360Z,100153.25
2022-10-31T03:35:55.281Z,100148.22
2022-10-31T03:38:23.488Z,100149.19
2022-10-31T03:40:53.866Z,100159.50
2022-10-31T03:43:29.406Z,100172.34
2022-10-31T03:45:56.814Z,100164.66
2022-10-31T03:48:24.618Z,100151.00
2022-10-31T03:51:00.605Z,100153.50
2022-10-31T03:54:16.587Z,100149.31
2022-10-31T03:56:55.947Z,100148.59
2022-10-31T03:59:33.803Z,100149.53
2022-10-31T04:02:11.738Z,100149.63
2022-10-31T04:04:40.595Z,100159.91
2022-10-31T04:07:10.230Z,100160.84
2022-10-31T04:09:43.743Z,100147.25
2022-10-31T04:12:16.653Z,100149.94
2022-10-31T04:14:48.703Z,100152.66
2022-10-31T04:17:22.099Z,100161.28
2022-10-31T04:19:48.844Z,100153.72
2022-10-31T04:22:15.606Z,100153.84
2022-10-31T04:24:42.465Z,100144.59
2022-10-31T04:27:09.433Z,100148.91
2022-10-31T04:29:36.107Z,100150.69
2022-10-31T04:32:02.836Z,100135.47
2022-10-31T04:34:29.525Z,100134.69
2022-10-31T04:36:56.227Z,100135.66
2022-10-31T04:39:26.569Z,100133.16
2022-10-31T04:41:53.736Z,100126.41
2022-10-31T04:44:20.682Z,100129.00
2022-10-31T04:46:47.715Z,100137.50
2022-10-31T04:49:14.400Z,100134.94
2022-10-31T04:51:41.093Z,100137.53
2022-10-31T04:54:08.004Z,100145.16
2022-10-31T04:56:34.757Z,100131.56
2022-10-31T04:59:01.560Z,100120.47
2022-10-31T05:01:28.941Z,100124.72
2022-10-31T05:03:55.915Z,100116.25
2022-10-31T05:06:22.745Z,100110.34
2022-10-31T05:08:49.462Z,100118.06
2022-10-31T05:11:16.233Z,100121.53
2022-10-31T05:13:42.965Z,100118.13
2022-10-31T05:16:09.741Z,100123.25
2022-10-31T05:18:36.425Z,100115.56
2022-10-31T05:21:03.318Z,100118.13
2022-10-31T05:23:30.043Z,100118.97
2022-10-31T05:25:56.740Z,100117.28
2022-10-31T05:28:23.525Z,100117.25
2022-10-31T05:30:50.908Z,100113.81
2022-10-31T05:33:17.640Z,100109.53
2022-10-31T05:35:44.348Z,100115.47
2022-10-31T05:38:11.126Z,100105.22
2022-10-31T05:40:37.822Z,100111.19
2022-10-31T05:43:04.547Z,100116.25
2022-10-31T05:45:31.288Z,100108.59
2022-10-31T05:48:01.751Z,100112.00
2022-10-31T05:50:32.209Z,100112.94
2022-10-31T05:53:06.441Z,100117.19
2022-10-31T05:55:33.883Z,100108.72
2022-10-31T05:58:01.551Z,100107.03
2022-10-31T06:00:29.377Z,100097.66
2022-10-31T06:05:35.492Z,100099.44
2022-10-31T06:08:02.758Z,100089.25
2022-10-31T06:10:30.050Z,100091.88
2022-10-31T06:12:57.593Z,100089.31
2022-10-31T06:15:25.037Z,100080.84
2022-10-31T06:18:06.666Z,100077.47
2022-10-31T06:20:34.412Z,100078.38
2022-10-31T06:23:02.633Z,100077.59
2022-10-31T06:25:29.818Z,100072.56
2022-10-31T06:27:57.872Z,100079.41
2022-10-31T06:30:24.745Z,100085.38
2022-10-31T06:32:51.508Z,100090.47
2022-10-31T06:35:18.829Z,100087.91
2022-10-31T06:37:54.063Z,100090.44
2022-10-31T06:40:21.027Z,100086.19
2022-10-31T06:42:47.743Z,100090.47
2022-10-31T06:45:14.595Z,100090.44
2022-10-31T06:47:56.843Z,100092.09
2022-10-31T06:50:28.105Z,100077.66
2022-10-31T06:52:57.860Z,100077.63
2022-10-31T06:55:26.818Z,100088.59
2022-10-31T06:58:02.041Z,100089.44
2022-10-31T07:00:31.327Z,100097.03
2022-10-31T07:03:07.313Z,100092.72
2022-10-31T07:05:34.443Z,100111.38
2022-10-31T07:08:05.171Z,100106.19
2022-10-31T07:10:39.056Z,100113.72
2022-10-31T07:13:14.070Z,100112.75
2022-10-31T07:15:43.377Z,100107.53
2022-10-31T07:18:12.590Z,100106.56
2022-10-31T07:20:39.458Z,100097.13
2022-10-31T07:23:06.523Z,100096.19
2022-10-31T07:25:33.593Z,100102.00
2022-10-31T07:28:00.635Z,100106.94
2022-10-31T07:30:27.745Z,100103.41
2022-10-31T07:32:54.567Z,100106.66
2022-10-31T07:35:25.952Z,100103.91
2022-10-31T07:37:53.399Z,100110.63
2022-10-31T07:40:20.763Z,100117.31
2022-10-31T07:42:50.539Z,100106.94
2022-10-31T07:45:20.772Z,100103.38
2022-10-31T07:47:53.198Z,100115.13
2022-10-31T07:50:26.649Z,100105.63
2022-10-31T07:53:08.614Z,100109.75
2022-10-31T07:55:36.149Z,100111.31
2022-10-31T07:58:05.263Z,100118.00
2022-10-31T08:00:34.409Z,100106.72
2022-10-31T08:03:11.024Z,100118.53
2022-10-31T08:05:38.456Z,100116.72
2022-10-31T08:08:06.314Z,100108.84
2022-10-31T08:10:34.920Z,100117.22
2022-10-31T08:13:08.954Z,100115.34
2022-10-31T08:15:38.931Z,100105.84
2022-10-31T08:18:07.606Z,100098.03
2022-10-31T08:20:34.349Z,100100.50
2022-10-31T08:23:05.130Z,100095.28
2022-10-31T08:25:38.290Z,100090.13
2022-10-31T08:28:07.476Z,100093.44
2022-10-31T08:30:37.583Z,100095.97
2022-10-31T08:33:14.507Z,100091.63
2022-10-31T08:35:42.310Z,100089.81
2022-10-31T08:38:14.041Z,100087.19
2022-10-31T08:40:41.112Z,100090.56
2022-10-31T08:43:15.564Z,100081.94
2022-10-31T08:45:43.918Z,100083.47
2022-10-31T08:48:15.482Z,100081.56
2022-10-31T08:50:43.340Z,100073.63
2022-10-31T08:53:19.377Z,100068.16
2022-10-31T08:55:48.195Z,100063.63
2022-10-31T08:58:20.468Z,100055.66
2022-10-31T09:00:51.523Z,100051.03
2022-10-31T09:03:31.305Z,100048.19
2022-10-31T09:06:01.265Z,100041.91
2022-10-31T09:08:31.001Z,100034.03
2022-10-31T09:10:58.837Z,100036.38
2022-10-31T09:13:28.152Z,100024.19
2022-10-31T09:15:57.430Z,100020.28
2022-10-31T09:18:24.980Z,100016.44
2022-10-31T09:20:52.256Z,100012.41
2022-10-31T09:23:22.704Z,100017.19
2022-10-31T09:25:52.720Z,100008.28
2022-10-31T09:28:23.690Z,100002.88
2022-10-31T09:30:53.587Z,100000.81
2022-10-31T09:33:21.360Z,99994.50
2022-10-31T09:35:48.571Z,99991.47
2022-10-31T09:38:23.208Z,99985.09
2022-10-31T09:41:16.195Z,99978.00
2022-10-31T09:44:44.521Z,99969.25
2022-10-31T09:47:23.775Z,99970.00
2022-10-31T09:50:38.796Z,99968.28
2022-10-31T09:53:41.883Z,99963.69
2022-10-31T09:56:17.665Z,99957.13
2022-10-31T09:59:00.604Z,99948.34
2022-10-31T10:01:47.099Z,99931.09
2022-10-31T10:04:58.190Z,99932.91
2022-10-31T10:07:42.742Z,99923.56
2022-10-31T10:10:27.496Z,99924.38
2022-10-31T10:13:15.294Z,99917.16
2022-10-31T10:16:13.085Z,99921.34
2022-10-31T10:19:16.277Z,99944.06
2022-10-31T10:22:09.385Z,99941.78
2022-10-31T10:25:13.451Z,99943.06
2022-10-31T10:28:06.747Z,99940.00
2022-10-31T10:30:51.065Z,99938.13
2022-10-31T10:33:33.413Z,99954.22
2022-10-31T10:36:06.249Z,99946.28
2022-10-31T10:38:51.832Z,99936.88
2022-10-31T10:41:22.856Z,99939.53
2022-10-31T10:43:55.029Z,99934.59
2022-10-31T10:47:07.741Z,99927.06
2022-10-31T10:49:52.695Z,99922.97
2022-10-31T10:52:53.894Z,99929.38
2022-10-31T10:55:53.478Z,99930.66
2022-10-31T10:58:20.229Z,99913.06
2022-10-31T11:00:48.839Z,99910.31
2022-10-31T11:03:17.283Z,99911.97
2022-10-31T11:05:55.772Z,99911.06
2022-10-31T11:08:34.796Z,99897.38
2022-10-31T11:11:27.376Z,99880.41
2022-10-31T11:14:05.859Z,99877.91
2022-10-31T11:16:43.888Z,99883.22
2022-10-31T11:19:13.241Z,99876.56
2022-10-31T11:21:40.048Z,99868.09
2022-10-31T11:24:19.983Z,99861.44
2022-10-31T11:26:50.473Z,99862.59
2022-10-31T11:29:25.936Z,99857.69
2022-10-31T11:32:01.608Z,99848.66
2022-10-31T11:34:33.163Z,99838.88
2022-10-31T11:37:18.693Z,99832.81
2022-10-31T11:39:54.394Z,99827.19
2022-10-31T11:42:29.915Z,99825.97
2022-10-31T11:44:57.953Z,99826.41
2022-10-31T11:47:30.441Z,99830.19
2022-10-31T11:49:58.832Z,99824.41
2022-10-31T11:52:32.795Z,99822.13
2022-10-31T11:55:12.899Z,99808.75
2022-10-31T11:57:50.142Z,99813.31
2022-10-31T12:00:24.661Z,99804.94
2022-10-31T12:02:52.493Z,99804.88
2022-10-31T12:05:33.742Z,99798.28
2022-10-31T12:08:04.294Z,99786.59
2022-10-31T12:11:25.558Z,99781.09
2022-10-31T12:14:21.702Z,99777.78
2022-10-31T12:17:14.524Z,99759.16
2022-10-31T12:20:04.306Z,99749.78
2022-10-31T12:23:26.762Z,99746.25
2022-10-31T12:26:04.382Z,99747.66
2022-10-31T12:29:16.661Z,99732.75
2022-10-31T12:32:19.090Z,99728.09
2022-10-31T12:35:19.170Z,99725.22
2022-10-31T12:38:13.199Z,99731.75
2022-10-31T12:41:20.344Z,99733.19
2022-10-31T12:44:07.815Z,99744.06
2022-10-31T12:47:15.035Z,99740.16
2022-10-31T12:50:13.677Z,99733.72
2022-10-31T12:53:20.441Z,99727.28
2022-10-31T12:55:53.920Z,99738.69
2022-10-31T12:58:50.885Z,99736.50
2022-10-31T13:01:38.966Z,99734.97
2022-10-31T13:04:31.479Z,99719.09
2022-10-31T13:07:08.582Z,99707.38
2022-10-31T13:09:46.093Z,99689.63
2022-10-31T13:12:19.760Z,99690.66
2022-10-31T13:14:52.473Z,99673.72
2022-10-31T13:17:45.114Z,99674.97
2022-10-31T13:20:30.148Z,99676.94
2022-10-31T13:23:30.065Z,99665.09
2022-10-31T13:26:09.882Z,99668.75
2022-10-31T13:31:22.411Z,99660.63
2022-10-31T13:33:58.201Z,99647.97
2022-10-31T13:36:45.042Z,99638.84
2022-10-31T13:40:03.797Z,99633.13
2022-10-31T13:42:58.551Z,99618.59
2022-10-31T13:45:27.112Z,99618.56
2022-10-31T13:48:19.369Z,99616.81
2022-10-31T13:51:09.404Z,99598.22
2022-10-31T13:53:51.262Z,99595.72
2022-10-31T13:56:23.667Z,99578.69
2022-10-31T13:59:11.470Z,99580.59
2022-10-31T14:01:51.925Z,99575.56
2022-10-31T14:04:32.503Z,99586.00
2022-10-31T14:07:16.574Z,99584.38
2022-10-31T14:10:20.898Z,99587.84
2022-10-31T14:12:49.658Z,99589.44
2022-10-31T14:15:25.081Z,99591.94
2022-10-31T14:18:03.869Z,99591.78
2022-10-31T14:20:41.705Z,99577.91
2022-10-31T14:23:31.323Z,99565.84
2022-10-31T14:26:32.027Z,99566.59
2022-10-31T14:29:04.098Z,99563.84
2022-10-31T14:31:32.983Z,99556.97
2022-10-31T14:34:27.780Z,99548.53
2022-10-31T14:37:17.356Z,99551.25
2022-10-31T14:40:01.704Z,99546.16
2022-10-31T14:42:58.727Z,99539.41
2022-10-31T14:46:08.475Z,99535.22
2022-10-31T14:49:03.432Z,99536.03
2022-10-31T14:51:49.355Z,99519.25
2022-10-31T14:54:28.124Z,99516.44
2022-10-31T14:57:16.117Z,99510.13
2022-10-31T14:59:50.260Z,99514.78
2022-10-31T15:02:37.773Z,99517.50
2022-10-31T15:05:13.643Z,99506.56
2022-10-31T15:07:55.065Z,99499.00
2022-10-31T15:10:37.456Z,99490.50
2022-10-31T15:13:30.622Z,99483.81
2022-10-31T15:15:57.561Z,99466.66
2022-10-31T15:18:29.477Z,99468.34
2022-10-31T15:20:57.727Z,99458.19
2022-10-31T15:23:31.371Z,99448.72
2022-10-31T15:26:06.494Z,99445.41
2022-10-31T15:28:33.491Z,99441.28
2022-10-31T15:31:03.337Z,99438.03
2022-10-31T15:33:43.834Z,99438.13
2022-10-31T15:36:27.378Z,99438.41
2022-10-31T15:38:59.962Z,99439.41
2022-10-31T15:41:43.858Z,99436.16
2022-10-31T15:44:37.026Z,99435.63
2022-10-31T15:47:17.951Z,99451.09
2022-10-31T15:49:57.257Z,99461.31
2022-10-31T15:52:45.285Z,99457.16
2022-10-31T15:55:28.998Z,99458.06
2022-10-31T15:58:05.622Z,99453.81
2022-10-31T16:00:36.453Z,99453.88
2022-10-31T16:03:29.078Z,99447.19
2022-10-31T16:06:04.626Z,99450.66
2022-10-31T16:08:31.361Z,99449.03
2022-10-31T16:11:08.094Z,99447.28
2022-10-31T16:13:38.741Z,99444.78
2022-10-31T16:19:06.657Z,99442.44
2022-10-31T16:21:39.279Z,99442.50
2022-10-31T16:24:24.633Z,99434.94
2022-10-31T16:26:55.818Z,99437.66
2022-10-31T16:29:43.824Z,99434.34
2022-10-31T16:32:37.511Z,99438.75
2022-10-31T16:35:10.231Z,99441.31
2022-10-31T16:37:43.678Z,99441.31
2022-10-31T16:40:17.471Z,99439.66
2022-10-31T16:42:45.758Z,99438.88
2022-10-31T16:45:25.253Z,99441.47
2022-10-31T16:47:52.586Z,99438.94
2022-10-31T16:50:28.341Z,99442.41
2022-10-31T16:55:49.144Z,99449.31
2022-10-31T16:58:33.862Z,99450.28
2022-10-31T17:01:03.208Z,99451.97
2022-10-31T17:03:30.025Z,99445.16
2022-10-31T17:05:57.159Z,99446.00
2022-10-31T17:08:25.161Z,99446.81
2022-10-31T17:10:57.505Z,99435.72
2022-10-31T17:13:29.516Z,99449.47
2022-10-31T17:16:02.675Z,99441.81
2022-10-31T17:18:30.819Z,99441.91
2022-10-31T17:21:05.811Z,99431.84
2022-10-31T17:23:33.544Z,99426.88
2022-10-31T17:26:00.674Z,99422.63
2022-10-31T17:28:27.575Z,99427.00
2022-10-31T17:30:59.034Z,99425.34
2022-10-31T17:33:25.918Z,99413.53
2022-10-31T17:35:52.646Z,99419.59
2022-10-31T17:38:19.501Z,99415.44
2022-10-31T17:43:17.951Z,99409.69
2022-10-31T17:45:44.653Z,99403.84
2022-10-31T17:48:12.958Z,99408.22
2022-10-31T17:50:39.810Z,99402.47
2022-10-31T17:53:06.510Z,99410.22
2022-10-31T17:55:37.139Z,99408.66
2022-10-31T17:58:05.316Z,99400.28
2022-10-31T18:00:32.678Z,99412.34
2022-10-31T18:03:00.064Z,99397.91
2022-10-31T18:05:27.106Z,99391.09
2022-10-31T18:07:54.133Z,99393.72
2022-10-31T18:10:20.853Z,99392.16
2022-10-31T18:12:48.771Z,99390.56
2022-10-31T18:15:17.066Z,99391.53
2022-10-31T18:17:44.552Z,99389.16
2022-10-31T18:20:11.781Z,99391.06
2022-10-31T18:22:38.747Z,99389.38
2022-10-31T18:25:06.280Z,99388.38
2022-10-31T18:27:33.037Z,99389.28
2022-10-31T18:29:59.746Z,99385.00
2022-10-31T18:32:26.477Z,99389.22
2022-10-31T18:34:54.135Z,99388.88
2022-10-31T18:37:20.970Z,99387.53
2022-10-31T18:39:47.667Z,99378.44
2022-10-31T18:42:14.385Z,99378.72
2022-10-31T18:44:41.172Z,99378.97
2022-10-31T18:47:07.960Z,99380.84
2022-10-31T18:49:34.662Z,99383.59
2022-10-31T18:52:01.434Z,99369.19
2022-10-31T18:54:28.165Z,99370.19
2022-10-31T18:56:55.863Z,99366.97
2022-10-31T18:59:22.638Z,99367.09
2022-10-31T19:01:49.499Z,99355.41
2022-10-31T19:04:16.264Z,99367.41
2022-10-31T19:06:43.013Z,99344.50
2022-10-31T19:09:09.982Z,99346.13
2022-10-31T19:11:38.625Z,99344.31
2022-10-31T19:14:08.390Z,99335.69
2022-10-31T19:16:35.647Z,99347.56
2022-10-31T19:19:02.749Z,99340.56
2022-10-31T19:21:32.136Z,99345.69
2022-10-31T19:24:00.481Z,99331.88
2022-10-31T19:26:28.603Z,99324.16
2022-10-31T19:28:56.703Z,99329.16
2022-10-31T19:31:24.107Z,99324.69
2022-10-31T19:33:50.986Z,99320.31
2022-10-31T19:36:20.155Z,99323.56
2022-10-31T19:38:49.973Z,99316.53
2022-10-31T19:41:28.856Z,99302.53
2022-10-31T19:43:59.034Z,99306.47
2022-10-31T19:46:53.499Z,99305.34
2022-10-31T19:49:12.865Z,99307.53
2022-10-31T19:51:39.725Z,99302.81
2022-10-31T19:54:07.165Z,99292.09
2022-10-31T19:56:33.860Z,99297.69
2022-10-31T19:59:00.633Z,99288.78
2022-10-31T20:01:27.470Z,99280.63
2022-10-31T20:03:54.231Z,99281.19
2022-10-31T20:06:24.338Z,99273.94
2022-10-31T20:08:52.284Z,99271.88
2022-10-31T20:11:19.250Z,99274.97
2022-10-31T20:13:45.995Z,99274.63
2022-10-31T20:16:14.928Z,99267.53
2022-10-31T20:18:44.068Z,99273.22
2022-10-31T20:21:14.859Z,99278.09
2022-10-31T20:23:42.533Z,99276.22
2022-10-31T20:26:12.711Z,99267.44
2022-10-31T20:28:43.407Z,99275.03
2022-10-31T20:31:21.603Z,99267.97
2022-10-31T20:33:49.638Z,99262.69
2022-10-31T20:36:21.115Z,99270.22
2022-10-31T20:38:48.363Z,99270.84
2022-10-31T20:41:17.175Z,99261.25
2022-10-31T20:43:45.067Z,99261.94
2022-10-31T20:46:15.889Z,99260.00
2022-10-31T20:48:43.029Z,99248.84
2022-10-31T20:51:17.712Z,99245.28
2022-10-31T20:53:45.136Z,99241.78
2022-10-31T20:56:18.143Z,99239.09
2022-10-31T20:58:45.656Z,99237.34
2022-10-31T21:01:22.514Z,99244.94
2022-10-31T21:03:50.644Z,99235.41
2022-10-31T21:06:20.180Z,99226.72
2022-10-31T21:08:47.585Z,99222.50
2022-10-31T21:11:18.962Z,99237.72
2022-10-31T21:13:47.950Z,99238.47
2022-10-31T21:16:22.128Z,99237.56
2022-10-31T21:18:50.268Z,99244.38
2022-10-31T21:21:30.670Z,99235.78
2022-10-31T21:24:04.511Z,99240.75
2022-10-31T21:26:36.255Z,99235.53
2022-10-31T21:29:05.196Z,99231.09
2022-10-31T21:31:32.893Z,99232.78
2022-10-31T21:33:59.647Z,99233.38
2022-10-31T21:36:26.652Z,99228.56
2022-10-31T21:38:55.540Z,99225.63
2022-10-31T21:41:25.004Z,99226.00
2022-10-31T21:43:55.871Z,99233.00
2022-10-31T21:46:26.818Z,99226.16
2022-10-31T21:48:54.720Z,99224.41
2022-10-31T21:51:34.759Z,99225.22
2022-10-31T21:54:20.134Z,99208.97
2022-10-31T21:56:47.278Z,99218.28
2022-10-31T21:59:14.040Z,99212.31
2022-10-31T22:01:41.413Z,99210.41
2022-10-31T22:04:08.484Z,99213.66
2022-10-31T22:06:36.392Z,99211.00
2022-10-31T22:09:06.415Z,99207.47
2022-10-31T22:11:34.391Z,99209.13
2022-10-31T22:14:02.173Z,99210.66
2022-10-31T22:16:31.170Z,99208.00
2022-10-31T22:19:04.987Z,99214.81
2022-10-31T22:21:50.701Z,99222.59
2022-10-31T22:24:18.446Z,99229.25
2022-10-31T22:26:45.343Z,99231.75
2022-10-31T22:29:18.447Z,99227.38
2022-10-31T22:31:51.878Z,99229.88
2022-10-31T22:34:21.941Z,99225.63
2022-10-31T22:36:48.627Z,99228.91
2022-10-31T22:39:15.410Z,99225.50
2022-10-31T22:41:42.168Z,99218.53
2022-10-31T22:44:09.029Z,99222.75
2022-10-31T22:46:38.931Z,99225.25
2022-10-31T22:49:11.187Z,99223.50
2022-10-31T22:51:39.998Z,99230.41
2022-10-31T22:54:25.293Z,99226.06
2022-10-31T22:56:52.064Z,99224.44
2022-10-31T22:59:18.779Z,99220.19
2022-10-31T23:01:46.047Z,99217.53
2022-10-31T23:04:15.272Z,99225.34
2022-10-31T23:06:42.417Z,99211.69
2022-10-31T23:09:13.918Z,99206.56
2022-10-31T23:11:41.001Z,99193.84
2022-10-31T23:14:16.123Z,99191.28
2022-10-31T23:16:45.823Z,99197.31
2022-10-31T23:19:28.428Z,99203.38
2022-10-31T23:22:02.634Z,99196.59
2022-10-31T23:24:38.970Z,99191.56
2022-10-31T23:27:17.794Z,99209.59
2022-10-31T23:29:47.508Z,99189.97
2022-10-31T23:32:27.270Z,99191.66
2022-10-31T23:34:57.282Z,99182.25
2022-10-31T23:37:27.980Z,99179.56
2022-10-31T23:39:55.765Z,99187.28
2022-10-31T23:42:23.656Z,99186.44
2022-10-31T23:44:50.596Z,99188.19
2022-10-31T23:47:18.744Z,99179.59
2022-10-31T23:49:45.834Z,99183.94
2022-10-31T23:52:13.791Z,99182.25
2022-10-31T23:54:40.648Z,99172.06
2022-10-31T23:57:07.635Z,99162.75
2022-10-31T23:59:34.404Z,99161.06
